aviador You're here:

PAMH Decoded Metar

MINCHUMINA in AK, USA
Report Time2017-09-24 22:56:00
UTC Time2017-09-24 23:09:17
Flight Rules mvfr MVFR
WindCalm
Visibility9999 m
Phenomena:Light Rain
Clouds:Overcast 023 Hf
Expected CloudBase > 1,200 ft AGL from Temp-Dew spread
Ceiling2,300 ft
Temp07°C (ISA -7)
Dew Point04°C (81% RH)
AAT5.7°C
QNH999 hPa
Density Alt502 ft
Elevation702 ft
Report Wrong Elevation
Raw Report
PAMH 242256Z AUTO 00000KT 10SM -RA OVC023 07/04 A2951 RMK AO2
SLP016 P0000 T00670039=

Extra information for PAMH:More info

Metar Taf Metar & Taf Last 4 Metars F.Rules Stats Wind Profile Meteogram Temp Stats Airport Information Weather charts Add Link Nearby VenuesMetar ALERT Operation Metar Decoded Social comments

AIRNAV info for PAMH